Aviation Digital Data Service (ADDS)

Output produced by METARs form (1150 UTC 19 September 2014)
found at http://aviationweather.gov/adds/metars/
 
KPVD 191125Z 1912/2012 02012KT P6SM SCT070 
     FM192000 08009KT P6SM SKC 
     FM200200 13005KT P6SM FEW250 
     FM200800 00000KT P6SM FEW250